TimeGMT,TemperatureF,Dew PointF,Humidity,Sea Level PressureIn,VisibilityMPH,Wind Direction,Wind SpeedMPH,Gust SpeedMPH,PrecipitationIn,Events,Conditions,WindDirDegrees,DateUTC
12:20 AM,44.6,41.0,87,28.56,6.2,SSW,24.2,39.1,N/A,Rain,Light Rain,210,2014-02-15 00:20:00
12:50 AM,44.6,39.2,81,28.59,6.2,SSW,23.0,-,N/A,,Overcast,210,2014-02-15 00:50:00
1:20 AM,44.6,39.2,81,28.59,6.2,SSW,25.3,38.0,N/A,Rain,Light Rain,210,2014-02-15 01:20:00
1:50 AM,44.6,39.2,81,28.62,6.2,SW,19.6,33.4,N/A,Rain,Light Rain,220,2014-02-15 01:50:00
2:20 AM,44.6,37.4,76,28.65,6.2,SW,20.7,41.4,N/A,,Scattered Clouds,220,2014-02-15 02:20:00
2:50 AM,44.6,37.4,76,28.65,6.2,SW,15.0,26.5,N/A,Rain,Light Rain,220,2014-02-15 02:50:00
3:20 AM,42.8,39.2,87,28.68,6.2,SW,12.7,-,N/A,Rain,Light Rain,220,2014-02-15 03:20:00
3:50 AM,42.8,37.4,81,28.68,6.2,SW,18.4,32.2,N/A,,Scattered Clouds,220,2014-02-15 03:50:00
4:20 AM,42.8,35.6,76,28.71,6.2,SW,18.4,32.2,N/A,,Partly Cloudy,220,2014-02-15 04:20:00
4:50 AM,42.8,37.4,81,28.74,6.2,SW,13.8,26.5,N/A,Rain,Light Rain,230,2014-02-15 04:50:00
5:20 AM,42.8,37.4,81,28.77,6.2,SW,16.1,28.8,N/A,Rain,Rain,220,2014-02-15 05:20:00
5:50 AM,42.8,39.2,87,28.77,6.2,SSW,12.7,26.5,N/A,,Mostly Cloudy,210,2014-02-15 05:50:00
6:20 AM,44.6,37.4,76,28.80,6.2,SW,12.7,25.3,N/A,,Mostly Cloudy,230,2014-02-15 06:20:00
6:50 AM,44.6,35.6,71,28.80,6.2,SW,17.3,32.2,N/A,,Mostly Cloudy,230,2014-02-15 06:50:00
7:20 AM,44.6,35.6,71,28.82,6.2,SW,17.3,34.5,N/A,Rain,Light Rain Showers,230,2014-02-15 07:20:00
7:50 AM,44.6,35.6,71,28.85,6.2,SW,15.0,26.5,N/A,,Scattered Clouds,230,2014-02-15 07:50:00
8:20 AM,44.6,35.6,71,28.88,6.2,WSW,17.3,29.9,N/A,,Scattered Clouds,240,2014-02-15 08:20:00
8:50 AM,44.6,35.6,71,28.91,6.2,WSW,17.3,29.9,N/A,Rain,Rain,250,2014-02-15 08:50:00
9:20 AM,46.4,37.4,71,28.94,6.2,WSW,15.0,28.8,N/A,,Scattered Clouds,240,2014-02-15 09:20:00
9:50 AM,46.4,37.4,71,28.94,6.2,SW,16.1,32.2,N/A,Rain,Light Rain Showers,230,2014-02-15 09:50:00
10:20 AM,44.6,39.2,81,28.97,6.2,SW,15.0,-,N/A,Rain,Light Rain Showers,230,2014-02-15 10:20:00
10:50 AM,46.4,37.4,71,28.97,6.2,SW,17.3,29.9,N/A,,Scattered Clouds,230,2014-02-15 10:50:00
11:20 AM,46.4,37.4,71,29.00,6.2,SW,16.1,32.2,N/A,,Scattered Clouds,230,2014-02-15 11:20:00
11:50 AM,44.6,37.4,76,29.03,6.2,WSW,15.0,33.4,N/A,Rain,Light Rain Showers,240,2014-02-15 11:50:00
12:20 PM,44.6,39.2,81,29.03,5.6,West,13.8,29.9,N/A,Rain,Light Rain Showers,260,2014-02-15 12:20:00
12:50 PM,44.6,39.2,81,29.06,6.2,WSW,15.0,27.6,N/A,,Scattered Clouds,250,2014-02-15 12:50:00
1:20 PM,44.6,39.2,81,29.06,6.2,West,19.6,34.5,N/A,,Scattered Clouds,260,2014-02-15 13:20:00
1:50 PM,46.4,39.2,76,29.09,6.2,West,16.1,29.9,N/A,Rain,Light Rain Showers,260,2014-02-15 13:50:00
2:20 PM,44.6,39.2,81,29.12,6.2,West,16.1,28.8,N/A,Rain,Light Rain Showers,260,2014-02-15 14:20:00
2:50 PM,42.8,39.2,87,29.15,6.2,West,15.0,-,N/A,Rain,Light Rain,270,2014-02-15 14:50:00
3:20 PM,44.6,39.2,81,29.18,6.2,West,15.0,-,N/A,,Mostly Cloudy,270,2014-02-15 15:20:00
3:50 PM,44.6,37.4,76,29.21,6.2,West,15.0,-,N/A,,Scattered Clouds,280,2014-02-15 15:50:00
4:20 PM,44.6,37.4,76,29.24,6.2,West,12.7,-,N/A,,Scattered Clouds,280,2014-02-15 16:20:00
4:50 PM,44.6,37.4,76,29.27,6.2,West,16.1,-,N/A,,Partly Cloudy,280,2014-02-15 16:50:00
5:20 PM,44.6,35.6,71,29.30,6.2,West,12.7,-,N/A,,Partly Cloudy,280,2014-02-15 17:20:00
5:50 PM,42.8,35.6,76,29.33,6.2,West,11.5,-,N/A,,Partly Cloudy,280,2014-02-15 17:50:00
6:20 PM,41.0,35.6,81,29.36,6.2,WNW,10.4,-,N/A,,Scattered Clouds,290,2014-02-15 18:20:00
6:50 PM,41.0,35.6,81,29.36,-9999.0,WSW,8.1,-,N/A,,Clear,250,2014-02-15 18:50:00
7:20 PM,41.0,35.6,81,29.39,-9999.0,West,9.2,-,N/A,,Clear,270,2014-02-15 19:20:00
7:50 PM,41.0,35.6,81,29.42,-9999.0,West,10.4,-,N/A,,Clear,270,2014-02-15 19:50:00
8:20 PM,41.0,35.6,81,29.42,-9999.0,WSW,8.1,-,N/A,,Clear,250,2014-02-15 20:20:00
8:50 PM,39.2,35.6,87,29.44,-9999.0,West,8.1,-,N/A,,Clear,260,2014-02-15 20:50:00
9:20 PM,41.0,33.8,76,29.44,-9999.0,West,8.1,-,N/A,,Clear,260,2014-02-15 21:20:00
9:50 PM,39.2,35.6,87,29.47,-9999.0,West,8.1,-,N/A,,Clear,260,2014-02-15 21:50:00
10:20 PM,39.2,33.8,81,29.47,-9999.0,West,9.2,-,N/A,,Clear,260,2014-02-15 22:20:00
10:50 PM,39.2,33.8,81,29.50,-9999.0,West,6.9,-,N/A,,Clear,260,2014-02-15 22:50:00
11:20 PM,39.2,33.8,81,29.50,-9999.0,WSW,6.9,-,N/A,,Clear,250,2014-02-15 23:20:00
11:50 PM,39.2,33.8,81,29.53,-9999.0,SW,5.8,-,N/A,,Clear,230,2014-02-15 23:50:00